createdAt,value
2023-04-13T00:01:15.000Z,96997
2023-04-13T00:03:21.000Z,96991
2023-04-13T00:04:48.000Z,96994
2023-04-13T00:06:54.000Z,96993
2023-04-13T00:08:20.000Z,96994
2023-04-13T00:10:26.000Z,96988
2023-04-13T00:11:53.000Z,96989
2023-04-13T00:13:59.000Z,96990
2023-04-13T00:16:50.000Z,96995
2023-04-13T00:18:17.000Z,96996
2023-04-13T00:20:23.000Z,96998
2023-04-13T00:21:50.000Z,96999
2023-04-13T00:23:56.000Z,97004
2023-04-13T00:25:23.000Z,97002
2023-04-13T00:27:29.000Z,97007
2023-04-13T00:28:55.000Z,97012
2023-04-13T00:31:01.000Z,97001
2023-04-13T00:32:28.000Z,96996
2023-04-13T00:34:34.000Z,97003
2023-04-13T00:36:01.000Z,96998
2023-04-13T00:38:07.000Z,97003
2023-04-13T00:39:33.000Z,97003
2023-04-13T00:41:39.000Z,97007
2023-04-13T00:43:06.000Z,97008
2023-04-13T00:45:12.000Z,97000
2023-04-13T00:46:38.000Z,97004
2023-04-13T00:48:45.000Z,97005
2023-04-13T00:50:11.000Z,97005
2023-04-13T00:52:18.000Z,97006
2023-04-13T00:55:09.000Z,96996
2023-04-13T00:56:35.000Z,96997
2023-04-13T00:58:41.000Z,96996
2023-04-13T01:00:08.000Z,97001
2023-04-13T01:02:14.000Z,96997
2023-04-13T01:03:41.000Z,97002
2023-04-13T01:05:47.000Z,96995
2023-04-13T01:07:13.000Z,96994
2023-04-13T01:09:19.000Z,96984
2023-04-13T01:10:46.000Z,96986
2023-04-13T01:12:52.000Z,96989
2023-04-13T01:14:18.000Z,96987
2023-04-13T01:16:25.000Z,96988
2023-04-13T01:17:51.000Z,96992
2023-04-13T01:19:58.000Z,96988
2023-04-13T01:21:24.000Z,96989
2023-04-13T01:23:30.000Z,96976
2023-04-13T01:24:57.000Z,96976
2023-04-13T01:27:03.000Z,96971
2023-04-13T01:28:29.000Z,96970
2023-04-13T01:30:36.000Z,96965
2023-04-13T01:33:27.000Z,96974
2023-04-13T01:34:53.000Z,96976
2023-04-13T01:36:59.000Z,96974
2023-04-13T01:38:26.000Z,96968
2023-04-13T01:40:32.000Z,96968
2023-04-13T01:41:58.000Z,96965
2023-04-13T01:44:04.000Z,96962
2023-04-13T01:45:31.000Z,96963
2023-04-13T01:47:37.000Z,96966
2023-04-13T01:49:03.000Z,96966
2023-04-13T01:51:10.000Z,96964
2023-04-13T01:52:36.000Z,96962
2023-04-13T01:54:42.000Z,96956
2023-04-13T01:56:09.000Z,96949
2023-04-13T01:58:15.000Z,96957
2023-04-13T01:59:41.000Z,96955
2023-04-13T02:01:47.000Z,96956
2023-04-13T02:03:14.000Z,96958
2023-04-13T02:05:20.000Z,96965
2023-04-13T02:06:47.000Z,96962
2023-04-13T02:08:53.000Z,96963
2023-04-13T02:11:44.000Z,96954
2023-04-13T02:13:11.000Z,96960
2023-04-13T02:15:17.000Z,96971
2023-04-13T02:16:43.000Z,96974
2023-04-13T02:18:50.000Z,96966
2023-04-13T02:20:16.000Z,96974
2023-04-13T02:22:22.000Z,96966
2023-04-13T02:23:49.000Z,96962
2023-04-13T02:25:55.000Z,96963
2023-04-13T02:27:21.000Z,96973
2023-04-13T02:29:27.000Z,96971
2023-04-13T02:30:54.000Z,96965
2023-04-13T02:33:00.000Z,96961
2023-04-13T02:34:26.000Z,96967
2023-04-13T02:36:33.000Z,96956
2023-04-13T02:37:59.000Z,96963
2023-04-13T02:40:05.000Z,96972
2023-04-13T02:41:32.000Z,96968
2023-04-13T02:43:38.000Z,96969
2023-04-13T02:45:04.000Z,96967
2023-04-13T02:47:10.000Z,96968
2023-04-13T02:50:02.000Z,96955
2023-04-13T02:51:28.000Z,96958
2023-04-13T02:53:34.000Z,96962
2023-04-13T02:55:01.000Z,96967
2023-04-13T02:57:07.000Z,96964
2023-04-13T02:58:34.000Z,96959
2023-04-13T03:00:40.000Z,96964
2023-04-13T03:02:06.000Z,96962
2023-04-13T03:04:12.000Z,96969
2023-04-13T03:05:39.000Z,96977
2023-04-13T03:07:45.000Z,96966
2023-04-13T03:09:11.000Z,96978
2023-04-13T03:11:18.000Z,96967
2023-04-13T03:12:44.000Z,96970
2023-04-13T03:14:50.000Z,96978
2023-04-13T03:16:17.000Z,96969
2023-04-13T03:18:23.000Z,96976
2023-04-13T03:19:50.000Z,96985
2023-04-13T03:21:56.000Z,96974
2023-04-13T03:23:22.000Z,96973
2023-04-13T03:25:28.000Z,96962
2023-04-13T03:28:20.000Z,96958
2023-04-13T03:29:46.000Z,96961
2023-04-13T03:31:52.000Z,96952
2023-04-13T03:33:19.000Z,96952
2023-04-13T03:35:25.000Z,96957
2023-04-13T03:36:51.000Z,96961
2023-04-13T03:38:58.000Z,96952
2023-04-13T03:40:24.000Z,96953
2023-04-13T03:42:30.000Z,96957
2023-04-13T03:43:57.000Z,96958
2023-04-13T03:46:03.000Z,96966
2023-04-13T03:47:30.000Z,96967
2023-04-13T03:49:36.000Z,96958
2023-04-13T03:51:02.000Z,96963
2023-04-13T03:53:09.000Z,96957
2023-04-13T03:54:35.000Z,96957
2023-04-13T03:56:41.000Z,96965
2023-04-13T03:58:08.000Z,96964
2023-04-13T04:00:14.000Z,96963
2023-04-13T04:01:40.000Z,96957
2023-04-13T04:03:47.000Z,96959
2023-04-13T04:06:38.000Z,96966
2023-04-13T04:08:04.000Z,96966
2023-04-13T04:10:10.000Z,96973
2023-04-13T04:11:37.000Z,96966
2023-04-13T04:13:43.000Z,96974
2023-04-13T04:15:09.000Z,96976
2023-04-13T04:17:15.000Z,96974
2023-04-13T04:18:42.000Z,96971
2023-04-13T04:20:48.000Z,96976
2023-04-13T04:22:14.000Z,96981
2023-04-13T04:24:20.000Z,96977
2023-04-13T04:25:47.000Z,96978
2023-04-13T04:27:53.000Z,96979
2023-04-13T04:29:20.000Z,96989
2023-04-13T04:31:26.000Z,96993
2023-04-13T04:32:52.000Z,96995
2023-04-13T04:34:58.000Z,96998
2023-04-13T04:36:25.000Z,97004
2023-04-13T04:38:31.000Z,97001
2023-04-13T04:39:57.000Z,97005
2023-04-13T04:42:04.000Z,97001
2023-04-13T04:44:55.000Z,97004
2023-04-13T04:46:21.000Z,97003
2023-04-13T04:48:27.000Z,97010
2023-04-13T04:49:54.000Z,97011
2023-04-13T04:52:00.000Z,97018
2023-04-13T04:53:26.000Z,97019
2023-04-13T04:55:32.000Z,97027
2023-04-13T04:56:59.000Z,97031
2023-04-13T04:59:05.000Z,97027
2023-04-13T05:00:32.000Z,97023
2023-04-13T05:02:38.000Z,97036
2023-04-13T05:04:04.000Z,97033
2023-04-13T05:06:10.000Z,97035
2023-04-13T05:07:37.000Z,97040
2023-04-13T05:09:43.000Z,97045
2023-04-13T05:11:10.000Z,97041
2023-04-13T05:13:16.000Z,97041
2023-04-13T05:14:42.000Z,97046
2023-04-13T05:16:48.000Z,97051
2023-04-13T05:18:15.000Z,97051
2023-04-13T05:20:21.000Z,97052
2023-04-13T05:23:12.000Z,97057
2023-04-13T05:24:39.000Z,97056
2023-04-13T05:26:45.000Z,97062
2023-04-13T05:28:11.000Z,97061
2023-04-13T05:30:17.000Z,97058
2023-04-13T05:31:44.000Z,97065
2023-04-13T05:33:50.000Z,97069
2023-04-13T05:35:16.000Z,97063
2023-04-13T05:37:23.000Z,97073
2023-04-13T05:38:49.000Z,97069
2023-04-13T05:40:55.000Z,97070
2023-04-13T05:42:22.000Z,97069
2023-04-13T05:44:28.000Z,97076
2023-04-13T05:45:54.000Z,97075
2023-04-13T05:48:01.000Z,97081
2023-04-13T05:49:27.000Z,97082
2023-04-13T05:51:33.000Z,97080
2023-04-13T05:53:00.000Z,97078
2023-04-13T05:55:06.000Z,97087
2023-04-13T05:56:32.000Z,97088
2023-04-13T05:58:38.000Z,97088
2023-04-13T06:01:30.000Z,97078
2023-04-13T06:02:56.000Z,97078
2023-04-13T06:05:03.000Z,97082
2023-04-13T06:06:29.000Z,97071
2023-04-13T06:08:35.000Z,97078
2023-04-13T06:10:02.000Z,97075
2023-04-13T06:12:08.000Z,97076
2023-04-13T06:13:34.000Z,97077
2023-04-13T06:15:41.000Z,97081
2023-04-13T06:17:07.000Z,97085
2023-04-13T06:19:13.000Z,97090
2023-04-13T06:20:40.000Z,97092
2023-04-13T06:22:46.000Z,97090
2023-04-13T06:24:13.000Z,97094
2023-04-13T06:26:19.000Z,97094
2023-04-13T06:27:45.000Z,97091
2023-04-13T06:29:52.000Z,97100
2023-04-13T06:31:18.000Z,97103
2023-04-13T06:33:24.000Z,97101
2023-04-13T06:34:51.000Z,97104
2023-04-13T06:36:57.000Z,97106
2023-04-13T06:39:48.000Z,97110
2023-04-13T06:41:15.000Z,97108
2023-04-13T06:43:21.000Z,97102
2023-04-13T06:44:56.000Z,97117
2023-04-13T06:47:02.000Z,97106
2023-04-13T06:48:28.000Z,97116
2023-04-13T06:50:34.000Z,97117
2023-04-13T06:52:01.000Z,97118
2023-04-13T06:54:07.000Z,97112
2023-04-13T06:55:34.000Z,97117
2023-04-13T06:57:40.000Z,97116
2023-04-13T06:59:06.000Z,97119
2023-04-13T07:01:13.000Z,97124
2023-04-13T07:02:40.000Z,97123
2023-04-13T07:04:46.000Z,97134
2023-04-13T07:06:13.000Z,97135
2023-04-13T07:08:19.000Z,97136
2023-04-13T07:09:45.000Z,97137
2023-04-13T07:11:52.000Z,97134
2023-04-13T07:13:18.000Z,97138
2023-04-13T07:15:24.000Z,97137
2023-04-13T07:18:15.000Z,97136
2023-04-13T07:19:42.000Z,97127
2023-04-13T07:21:48.000Z,97136
2023-04-13T07:23:14.000Z,97133
2023-04-13T07:25:21.000Z,97132
2023-04-13T07:26:47.000Z,97136
2023-04-13T07:28:53.000Z,97128
2023-04-13T07:30:20.000Z,97129
2023-04-13T07:32:26.000Z,97135
2023-04-13T07:33:57.000Z,97136
2023-04-13T07:36:04.000Z,97136
2023-04-13T07:37:30.000Z,97140
2023-04-13T07:39:36.000Z,97140
2023-04-13T07:41:03.000Z,97146
2023-04-13T07:43:09.000Z,97143
2023-04-13T07:44:36.000Z,97141
2023-04-13T07:46:42.000Z,97143
2023-04-13T07:48:08.000Z,97148
2023-04-13T07:50:15.000Z,97152
2023-04-13T07:51:41.000Z,97153
2023-04-13T07:53:47.000Z,97152
2023-04-13T07:56:39.000Z,97161
2023-04-13T07:58:05.000Z,97162
2023-04-13T08:00:11.000Z,97163
2023-04-13T08:01:38.000Z,97166
2023-04-13T08:03:44.000Z,97172
2023-04-13T08:05:10.000Z,97173
2023-04-13T08:07:17.000Z,97173
2023-04-13T08:08:43.000Z,97174
2023-04-13T08:10:50.000Z,97173
2023-04-13T08:12:16.000Z,97173
2023-04-13T08:14:22.000Z,97181
2023-04-13T08:15:49.000Z,97181
2023-04-13T08:17:55.000Z,97180
2023-04-13T08:19:21.000Z,97183
2023-04-13T08:21:27.000Z,97186
2023-04-13T08:22:54.000Z,97186
2023-04-13T08:25:00.000Z,97188
2023-04-13T08:26:27.000Z,97185
2023-04-13T08:28:33.000Z,97190
2023-04-13T08:29:59.000Z,97187
2023-04-13T08:32:05.000Z,97185
2023-04-13T08:34:57.000Z,97182
2023-04-13T08:36:23.000Z,97186
2023-04-13T08:38:30.000Z,97185
2023-04-13T08:39:56.000Z,97179
2023-04-13T08:42:02.000Z,97182
2023-04-13T08:43:29.000Z,97187
2023-04-13T08:45:35.000Z,97184
2023-04-13T08:47:01.000Z,97187
2023-04-13T08:49:08.000Z,97188
2023-04-13T08:50:34.000Z,97182
2023-04-13T08:52:41.000Z,97180
2023-04-13T08:54:07.000Z,97183
2023-04-13T08:56:13.000Z,97177
2023-04-13T08:57:40.000Z,97175
2023-04-13T08:59:46.000Z,97175
2023-04-13T09:01:12.000Z,97179
2023-04-13T09:03:18.000Z,97183
2023-04-13T09:04:45.000Z,97196
2023-04-13T09:06:52.000Z,97181
2023-04-13T09:08:18.000Z,97187
2023-04-13T09:10:24.000Z,97192
2023-04-13T09:13:15.000Z,97189
2023-04-13T09:14:42.000Z,97196
2023-04-13T09:16:48.000Z,97187
2023-04-13T09:18:15.000Z,97188
2023-04-13T09:20:21.000Z,97190
2023-04-13T09:21:47.000Z,97190
2023-04-13T09:23:53.000Z,97193
2023-04-13T09:25:20.000Z,97193
2023-04-13T09:27:26.000Z,97196
2023-04-13T09:28:52.000Z,97200
2023-04-13T09:31:01.000Z,97205
2023-04-13T09:32:28.000Z,97208
2023-04-13T09:34:34.000Z,97213
2023-04-13T09:36:01.000Z,97214
2023-04-13T09:38:07.000Z,97209
2023-04-13T09:39:33.000Z,97213
2023-04-13T09:41:39.000Z,97214
2023-04-13T09:43:06.000Z,97218
2023-04-13T09:45:12.000Z,97220
2023-04-13T09:46:39.000Z,97222
2023-04-13T09:48:45.000Z,97224
2023-04-13T09:51:36.000Z,97223
2023-04-13T09:53:02.000Z,97226
2023-04-13T09:55:08.000Z,97220
2023-04-13T09:56:35.000Z,97223
2023-04-13T09:58:41.000Z,97230
2023-04-13T10:00:08.000Z,97228
2023-04-13T10:02:14.000Z,97230
2023-04-13T10:03:40.000Z,97223
2023-04-13T10:05:46.000Z,97233
2023-04-13T10:07:25.000Z,97228
2023-04-13T10:09:31.000Z,97228
2023-04-13T10:10:58.000Z,97238
2023-04-13T10:13:04.000Z,97230
2023-04-13T10:14:30.000Z,97245
2023-04-13T10:16:37.000Z,97239
2023-04-13T10:18:03.000Z,97244
2023-04-13T10:20:09.000Z,97240
2023-04-13T10:21:36.000Z,97241
2023-04-13T10:23:42.000Z,97247
2023-04-13T10:25:08.000Z,97248
2023-04-13T10:27:22.000Z,97246
2023-04-13T10:30:13.000Z,97251
2023-04-13T10:31:40.000Z,97245
2023-04-13T10:33:46.000Z,97247
2023-04-13T10:35:12.000Z,97255
2023-04-13T10:37:18.000Z,97255
2023-04-13T10:38:45.000Z,97259
2023-04-13T10:40:51.000Z,97263
2023-04-13T10:42:18.000Z,97262
2023-04-13T10:44:24.000Z,97261
2023-04-13T10:45:50.000Z,97268
2023-04-13T10:47:56.000Z,97262
2023-04-13T10:49:23.000Z,97261
2023-04-13T10:51:29.000Z,97261
2023-04-13T10:52:56.000Z,97279
2023-04-13T10:55:02.000Z,97274
2023-04-13T10:56:28.000Z,97263
2023-04-13T10:58:34.000Z,97262
2023-04-13T11:00:01.000Z,97259
2023-04-13T11:02:07.000Z,97258
2023-04-13T11:03:34.000Z,97257
2023-04-13T11:05:40.000Z,97264
2023-04-13T11:08:31.000Z,97262
2023-04-13T11:09:58.000Z,97260
2023-04-13T11:12:09.000Z,97248
2023-04-13T11:13:35.000Z,97249
2023-04-13T11:15:41.000Z,97242
2023-04-13T11:17:08.000Z,97249
2023-04-13T11:19:14.000Z,97238
2023-04-13T11:20:41.000Z,97245
2023-04-13T11:22:47.000Z,97244
2023-04-13T11:24:14.000Z,97246
2023-04-13T11:26:20.000Z,97241
2023-04-13T11:27:46.000Z,97238
2023-04-13T11:29:52.000Z,97245
2023-04-13T11:31:19.000Z,97251
2023-04-13T11:33:25.000Z,97246
2023-04-13T11:34:52.000Z,97248
2023-04-13T11:36:58.000Z,97243
2023-04-13T11:38:24.000Z,97245
2023-04-13T11:40:30.000Z,97244
2023-04-13T11:41:57.000Z,97239
2023-04-13T11:44:03.000Z,97238
2023-04-13T11:46:54.000Z,97239
2023-04-13T11:48:20.000Z,97239
2023-04-13T11:50:27.000Z,97238
2023-04-13T11:51:54.000Z,97238
2023-04-13T11:54:00.000Z,97244
2023-04-13T11:55:26.000Z,97246
2023-04-13T11:57:32.000Z,97248
2023-04-13T11:58:59.000Z,97245
2023-04-13T12:01:05.000Z,97248
2023-04-13T12:02:40.000Z,97244
2023-04-13T12:05:07.000Z,97251
2023-04-13T12:06:34.000Z,97252
2023-04-13T12:08:41.000Z,97252
2023-04-13T12:10:08.000Z,97252
2023-04-13T12:13:48.000Z,97253
2023-04-13T12:17:42.000Z,97244
2023-04-13T12:19:55.000Z,97248
2023-04-13T12:21:24.000Z,97246
2023-04-13T12:23:32.000Z,97252
2023-04-13T12:26:24.000Z,97264
2023-04-13T12:28:36.000Z,97262
2023-04-13T12:30:42.000Z,97256
2023-04-13T12:32:08.000Z,97262
2023-04-13T12:34:14.000Z,97261
2023-04-13T12:35:41.000Z,97261
2023-04-13T12:37:47.000Z,97260
2023-04-13T12:39:14.000Z,97261
2023-04-13T12:41:20.000Z,97268
2023-04-13T12:42:46.000Z,97274
2023-04-13T12:44:53.000Z,97287
2023-04-13T12:46:19.000Z,97294
2023-04-13T12:48:25.000Z,97287
2023-04-13T12:49:52.000Z,97282
2023-04-13T12:51:58.000Z,97276
2023-04-13T12:53:24.000Z,97280
2023-04-13T12:55:31.000Z,97280
2023-04-13T12:56:57.000Z,97286
2023-04-13T12:59:03.000Z,97292
2023-04-13T13:00:30.000Z,97294
2023-04-13T13:02:36.000Z,97295
2023-04-13T13:05:27.000Z,97296
2023-04-13T13:06:54.000Z,97291
2023-04-13T13:09:00.000Z,97291
2023-04-13T13:10:27.000Z,97291
2023-04-13T13:12:36.000Z,97293
2023-04-13T13:14:02.000Z,97297
2023-04-13T13:16:09.000Z,97298
2023-04-13T13:17:35.000Z,97290
2023-04-13T13:19:41.000Z,97290
2023-04-13T13:21:08.000Z,97289
2023-04-13T13:23:14.000Z,97284
2023-04-13T13:24:41.000Z,97281
2023-04-13T13:28:19.000Z,97286
2023-04-13T13:30:25.000Z,97282
2023-04-13T13:31:52.000Z,97286
2023-04-13T13:33:58.000Z,97288
2023-04-13T13:35:24.000Z,97288
2023-04-13T13:37:31.000Z,97290
2023-04-13T13:38:57.000Z,97291
2023-04-13T13:41:04.000Z,97291
2023-04-13T13:43:55.000Z,97297
2023-04-13T13:45:21.000Z,97298
2023-04-13T13:47:28.000Z,97309
2023-04-13T13:48:54.000Z,97314
2023-04-13T13:51:01.000Z,97322
2023-04-13T13:52:27.000Z,97327
2023-04-13T13:54:33.000Z,97332
2023-04-13T13:56:00.000Z,97335
2023-04-13T13:58:06.000Z,97343
2023-04-13T13:59:32.000Z,97343
2023-04-13T14:01:38.000Z,97341
2023-04-13T14:03:05.000Z,97347
2023-04-13T14:05:11.000Z,97347
2023-04-13T14:06:38.000Z,97350
2023-04-13T14:08:44.000Z,97356
2023-04-13T14:10:10.000Z,97358
2023-04-13T14:12:16.000Z,97363
2023-04-13T14:13:43.000Z,97363
2023-04-13T14:15:49.000Z,97373
2023-04-13T14:17:16.000Z,97371
2023-04-13T14:19:22.000Z,97376
2023-04-13T14:22:13.000Z,97382
2023-04-13T14:23:40.000Z,97382
2023-04-13T14:25:46.000Z,97387
2023-04-13T14:27:12.000Z,97384
2023-04-13T14:29:18.000Z,97385
2023-04-13T14:30:45.000Z,97383
2023-04-13T14:32:51.000Z,97382
2023-04-13T14:34:18.000Z,97385
2023-04-13T14:36:24.000Z,97385
2023-04-13T14:37:50.000Z,97394
2023-04-13T14:39:56.000Z,97397
2023-04-13T14:41:23.000Z,97407
2023-04-13T14:43:29.000Z,97409
2023-04-13T14:44:55.000Z,97409
2023-04-13T14:47:02.000Z,97408
2023-04-13T14:48:30.000Z,97405
2023-04-13T14:50:36.000Z,97402
2023-04-13T14:52:03.000Z,97404
2023-04-13T14:54:09.000Z,97405
2023-04-13T14:55:35.000Z,97404
2023-04-13T14:57:41.000Z,97400
2023-04-13T15:00:33.000Z,97388
2023-04-13T15:01:59.000Z,97395
2023-04-13T15:04:06.000Z,97394
2023-04-13T15:05:32.000Z,97396
2023-04-13T15:07:39.000Z,97401
2023-04-13T15:09:05.000Z,97401
2023-04-13T15:11:11.000Z,97407
2023-04-13T15:12:38.000Z,97408
2023-04-13T15:14:44.000Z,97417
2023-04-13T15:16:10.000Z,97418
2023-04-13T15:18:17.000Z,97420
2023-04-13T15:19:43.000Z,97420
2023-04-13T15:21:49.000Z,97420
2023-04-13T15:23:16.000Z,97415
2023-04-13T15:25:25.000Z,97420
2023-04-13T15:26:51.000Z,97426
2023-04-13T15:28:57.000Z,97430
2023-04-13T15:30:24.000Z,97430
2023-04-13T15:32:30.000Z,97430
2023-04-13T15:33:57.000Z,97431
2023-04-13T15:36:03.000Z,97436
2023-04-13T15:38:55.000Z,97438
2023-04-13T15:40:21.000Z,97437
2023-04-13T15:42:28.000Z,97437
2023-04-13T15:43:54.000Z,97436
2023-04-13T15:46:00.000Z,97436
2023-04-13T15:47:27.000Z,97433
2023-04-13T15:49:33.000Z,97434
2023-04-13T15:51:00.000Z,97431
2023-04-13T15:53:06.000Z,97436
2023-04-13T15:54:32.000Z,97436
2023-04-13T15:56:39.000Z,97433
2023-04-13T15:58:05.000Z,97435
2023-04-13T16:00:11.000Z,97443
2023-04-13T16:01:38.000Z,97446
2023-04-13T16:03:44.000Z,97445
2023-04-13T16:05:11.000Z,97451
2023-04-13T16:07:17.000Z,97454
2023-04-13T16:08:43.000Z,97455
2023-04-13T16:10:49.000Z,97454
2023-04-13T16:12:16.000Z,97456
2023-04-13T16:14:22.000Z,97457
2023-04-13T16:17:13.000Z,97462
2023-04-13T16:18:39.000Z,97462
2023-04-13T16:20:46.000Z,97459
2023-04-13T16:22:12.000Z,97460
2023-04-13T16:24:18.000Z,97465
2023-04-13T16:25:45.000Z,97465
2023-04-13T16:27:51.000Z,97468
2023-04-13T16:29:18.000Z,97463
2023-04-13T16:31:24.000Z,97464
2023-04-13T16:32:51.000Z,97464
2023-04-13T16:34:57.000Z,97465
2023-04-13T16:36:24.000Z,97471
2023-04-13T16:38:30.000Z,97472
2023-04-13T16:39:56.000Z,97475
2023-04-13T16:42:02.000Z,97477
2023-04-13T16:43:29.000Z,97473
2023-04-13T16:45:35.000Z,97474
2023-04-13T16:47:02.000Z,97471
2023-04-13T16:49:08.000Z,97474
2023-04-13T16:50:34.000Z,97470
2023-04-13T16:52:41.000Z,97471
2023-04-13T16:55:32.000Z,97472
2023-04-13T16:56:58.000Z,97470
2023-04-13T16:59:05.000Z,97469
2023-04-13T17:00:31.000Z,97469
2023-04-13T17:02:37.000Z,97468
2023-04-13T17:04:04.000Z,97471
2023-04-13T17:06:10.000Z,97469
2023-04-13T17:07:37.000Z,97467
2023-04-13T17:09:43.000Z,97468
2023-04-13T17:11:09.000Z,97470
2023-04-13T17:13:16.000Z,97471
2023-04-13T17:14:42.000Z,97472
2023-04-13T17:16:49.000Z,97471
2023-04-13T17:18:15.000Z,97474
2023-04-13T17:20:22.000Z,97470
2023-04-13T17:21:48.000Z,97474
2023-04-13T17:23:54.000Z,97480
2023-04-13T17:25:21.000Z,97478
2023-04-13T17:27:27.000Z,97484
2023-04-13T17:28:54.000Z,97490
2023-04-13T17:31:00.000Z,97493
2023-04-13T17:33:51.000Z,97503
2023-04-13T17:35:18.000Z,97506
2023-04-13T17:37:24.000Z,97511
2023-04-13T17:38:50.000Z,97514
2023-04-13T17:40:56.000Z,97519
2023-04-13T17:42:23.000Z,97519
2023-04-13T17:44:29.000Z,97523
2023-04-13T17:45:55.000Z,97522
2023-04-13T17:48:02.000Z,97526
2023-04-13T17:49:28.000Z,97529
2023-04-13T17:51:34.000Z,97528
2023-04-13T17:53:01.000Z,97534
2023-04-13T17:55:07.000Z,97534
2023-04-13T17:56:34.000Z,97536
2023-04-13T17:58:40.000Z,97543
2023-04-13T18:00:06.000Z,97544
2023-04-13T18:02:12.000Z,97549
2023-04-13T18:03:39.000Z,97551
2023-04-13T18:05:45.000Z,97551
2023-04-13T18:07:12.000Z,97554
2023-04-13T18:09:18.000Z,97556
2023-04-13T18:12:09.000Z,97561
2023-04-13T18:13:36.000Z,97559
2023-04-13T18:15:42.000Z,97564
2023-04-13T18:17:08.000Z,97564
2023-04-13T18:19:14.000Z,97564
2023-04-13T18:20:41.000Z,97565
2023-04-13T18:22:47.000Z,97572
2023-04-13T18:24:14.000Z,97570
2023-04-13T18:26:20.000Z,97572
2023-04-13T18:27:46.000Z,97576
2023-04-13T18:29:52.000Z,97579
2023-04-13T18:31:19.000Z,97583
2023-04-13T18:33:25.000Z,97589
2023-04-13T18:34:51.000Z,97590
2023-04-13T18:36:58.000Z,97594
2023-04-13T18:38:24.000Z,97596
2023-04-13T18:40:30.000Z,97596
2023-04-13T18:41:57.000Z,97602
2023-04-13T18:44:03.000Z,97598
2023-04-13T18:45:30.000Z,97604
2023-04-13T18:47:36.000Z,97601
2023-04-13T18:50:27.000Z,97609
2023-04-13T18:51:53.000Z,97607
2023-04-13T18:53:59.000Z,97611
2023-04-13T18:55:26.000Z,97607
2023-04-13T18:57:32.000Z,97612
2023-04-13T18:58:59.000Z,97616
2023-04-13T19:01:05.000Z,97620
2023-04-13T19:02:32.000Z,97620
2023-04-13T19:04:38.000Z,97625
2023-04-13T19:06:05.000Z,97629
2023-04-13T19:08:11.000Z,97630
2023-04-13T19:09:38.000Z,97635
2023-04-13T19:11:44.000Z,97636
2023-04-13T19:13:10.000Z,97636
2023-04-13T19:15:16.000Z,97636
2023-04-13T19:16:43.000Z,97631
2023-04-13T19:18:49.000Z,97634
2023-04-13T19:20:15.000Z,97633
2023-04-13T19:22:21.000Z,97638
2023-04-13T19:23:48.000Z,97637
2023-04-13T19:25:54.000Z,97633
2023-04-13T19:28:45.000Z,97625
2023-04-13T19:30:12.000Z,97631
2023-04-13T19:32:18.000Z,97624
2023-04-13T19:33:44.000Z,97632
2023-04-13T19:35:51.000Z,97632
2023-04-13T19:37:17.000Z,97634
2023-04-13T19:39:23.000Z,97632
2023-04-13T19:40:50.000Z,97628
2023-04-13T19:42:56.000Z,97626
2023-04-13T19:44:22.000Z,97625
2023-04-13T19:46:28.000Z,97630
2023-04-13T19:47:55.000Z,97633
2023-04-13T19:50:01.000Z,97638
2023-04-13T19:51:28.000Z,97638
2023-04-13T19:53:34.000Z,97644
2023-04-13T19:55:04.000Z,97647
2023-04-13T19:57:10.000Z,97648
2023-04-13T19:58:36.000Z,97648
2023-04-13T20:00:42.000Z,97650
2023-04-13T20:02:09.000Z,97646
2023-04-13T20:04:15.000Z,97645
2023-04-13T20:07:06.000Z,97643
2023-04-13T20:08:33.000Z,97639
2023-04-13T20:10:39.000Z,97638
2023-04-13T20:12:05.000Z,97634
2023-04-13T20:14:11.000Z,97636
2023-04-13T20:15:38.000Z,97632
2023-04-13T20:17:44.000Z,97637
2023-04-13T20:19:11.000Z,97636
2023-04-13T20:21:17.000Z,97640
2023-04-13T20:22:43.000Z,97636
2023-04-13T20:24:49.000Z,97639
2023-04-13T20:26:16.000Z,97640
2023-04-13T20:28:22.000Z,97637
2023-04-13T20:29:49.000Z,97635
2023-04-13T20:31:55.000Z,97634
2023-04-13T20:33:21.000Z,97634
2023-04-13T20:35:28.000Z,97635
2023-04-13T20:36:54.000Z,97635
2023-04-13T20:39:00.000Z,97633
2023-04-13T20:40:27.000Z,97635
2023-04-13T20:42:33.000Z,97636
2023-04-13T20:45:24.000Z,97633
2023-04-13T20:46:51.000Z,97636
2023-04-13T20:48:57.000Z,97634
2023-04-13T20:50:24.000Z,97635
2023-04-13T20:52:33.000Z,97634
2023-04-13T20:53:59.000Z,97637
2023-04-13T20:56:06.000Z,97635
2023-04-13T20:57:32.000Z,97634
2023-04-13T20:59:38.000Z,97637
2023-04-13T21:01:05.000Z,97635
2023-04-13T21:03:11.000Z,97638
2023-04-13T21:04:38.000Z,97638
2023-04-13T21:06:44.000Z,97643
2023-04-13T21:08:11.000Z,97647
2023-04-13T21:10:17.000Z,97646
2023-04-13T21:11:43.000Z,97647
2023-04-13T21:13:49.000Z,97641
2023-04-13T21:15:16.000Z,97642
2023-04-13T21:17:22.000Z,97646
2023-04-13T21:18:48.000Z,97647
2023-04-13T21:20:55.000Z,97648
2023-04-13T21:23:46.000Z,97654
2023-04-13T21:25:12.000Z,97657
2023-04-13T21:27:18.000Z,97661
2023-04-13T21:28:45.000Z,97664
2023-04-13T21:30:51.000Z,97670
2023-04-13T21:32:17.000Z,97665
2023-04-13T21:34:24.000Z,97665
2023-04-13T21:35:50.000Z,97670
2023-04-13T21:37:56.000Z,97670
2023-04-13T21:39:23.000Z,97672
2023-04-13T21:41:29.000Z,97672
2023-04-13T21:42:55.000Z,97671
2023-04-13T21:45:02.000Z,97674
2023-04-13T21:46:28.000Z,97672
2023-04-13T21:48:34.000Z,97669
2023-04-13T21:50:01.000Z,97668
2023-04-13T21:52:07.000Z,97667
2023-04-13T21:53:34.000Z,97665
2023-04-13T21:55:40.000Z,97667
2023-04-13T21:57:06.000Z,97669
2023-04-13T21:59:12.000Z,97666
2023-04-13T22:02:04.000Z,97669
2023-04-13T22:03:30.000Z,97667
2023-04-13T22:05:37.000Z,97663
2023-04-13T22:07:03.000Z,97663
2023-04-13T22:09:09.000Z,97655
2023-04-13T22:10:36.000Z,97660
2023-04-13T22:12:42.000Z,97655
2023-04-13T22:14:08.000Z,97652
2023-04-13T22:16:15.000Z,97651
2023-04-13T22:17:41.000Z,97653
2023-04-13T22:19:47.000Z,97646
2023-04-13T22:21:14.000Z,97648
2023-04-13T22:23:20.000Z,97645
2023-04-13T22:24:47.000Z,97645
2023-04-13T22:26:53.000Z,97639
2023-04-13T22:28:19.000Z,97637
2023-04-13T22:30:25.000Z,97640
2023-04-13T22:31:52.000Z,97640
2023-04-13T22:33:58.000Z,97636
2023-04-13T22:35:25.000Z,97639
2023-04-13T22:37:31.000Z,97637
2023-04-13T22:40:22.000Z,97633
2023-04-13T22:41:49.000Z,97633
2023-04-13T22:43:55.000Z,97634
2023-04-13T22:45:21.000Z,97634
2023-04-13T22:47:27.000Z,97628
2023-04-13T22:48:54.000Z,97631
2023-04-13T22:51:00.000Z,97632
2023-04-13T22:52:27.000Z,97634
2023-04-13T22:54:33.000Z,97641
2023-04-13T22:55:59.000Z,97641
2023-04-13T22:58:05.000Z,97644
2023-04-13T22:59:32.000Z,97647
2023-04-13T23:01:38.000Z,97644
2023-04-13T23:03:05.000Z,97648
2023-04-13T23:05:11.000Z,97644
2023-04-13T23:06:38.000Z,97646
2023-04-13T23:08:44.000Z,97653
2023-04-13T23:10:10.000Z,97656
2023-04-13T23:12:16.000Z,97656
2023-04-13T23:13:43.000Z,97656
2023-04-13T23:15:49.000Z,97664
2023-04-13T23:18:40.000Z,97670
2023-04-13T23:20:07.000Z,97672
2023-04-13T23:22:13.000Z,97680
2023-04-13T23:23:39.000Z,97681
2023-04-13T23:25:45.000Z,97682
2023-04-13T23:27:12.000Z,97678
2023-04-13T23:29:18.000Z,97677
2023-04-13T23:30:45.000Z,97682
2023-04-13T23:32:51.000Z,97687
2023-04-13T23:34:17.000Z,97693
2023-04-13T23:36:23.000Z,97692
2023-04-13T23:37:50.000Z,97694